Time;durP1;ratioP1;P1;durP2;ratioP2;P2;SDS_P1;SDS_P2;PMS_P1;PMS_P2;Temp;Humidity;BMP_temperature;BMP_pressure;BME280_temperature;BME280_humidity;BME280_pressure;Samples;Min_cycle;Max_cycle;Signal;HPM_P1;HPM_P2
2022/05/18 00:01:56;;;;;;;;;4.33;3.67;;;;;26.58;40.69;101515.41;5067982;28;45874;-47
2022/05/18 00:04:22;;;;;;;;;8.00;6.00;;;;;26.53;41.77;101525.97;5061108;28;45302;-47
2022/05/18 00:06:47;;;;;;;;;5.67;5.00;;;;;26.49;41.26;101523.72;5060862;28;45918;-45
2022/05/18 00:09:12;;;;;;;;;7.00;6.00;;;;;26.44;41.83;101534.25;5048927;28;63099;-46
2022/05/18 00:11:38;;;;;;;;;6.00;5.00;;;;;26.37;42.19;101531.34;5050388;28;60055;-46
2022/05/18 00:14:03;;;;;;;;;3.67;3.67;;;;;26.33;42.00;101532.69;5070107;28;45561;-46
2022/05/18 00:16:28;;;;;;;;;5.00;5.00;;;;;26.27;42.16;101534.22;5064870;28;45474;-46
2022/05/18 00:18:54;;;;;;;;;8.33;5.33;;;;;26.22;42.58;101531.97;5074215;28;47054;-48
2022/05/18 00:21:20;;;;;;;;;7.00;4.33;;;;;26.18;42.23;101536.03;5062490;28;45520;-47
2022/05/18 00:23:46;;;;;;;;;4.67;4.67;;;;;26.13;42.46;101535.66;5064141;28;45410;-46
2022/05/18 00:26:11;;;;;;;;;7.00;5.33;;;;;26.06;42.61;101540.91;5066595;28;45367;-46
2022/05/18 00:28:37;;;;;;;;;7.00;7.00;;;;;25.98;43.47;101548.97;5062553;28;65361;-46
2022/05/18 00:31:03;;;;;;;;;5.00;5.00;;;;;25.90;43.96;101551.66;5065203;28;45546;-46
2022/05/18 00:33:28;;;;;;;;;6.67;6.33;;;;;25.82;44.34;101555.16;5060861;28;45451;-47
2022/05/18 00:35:54;;;;;;;;;7.67;6.00;;;;;25.76;43.99;101555.78;5042535;28;45723;-45
2022/05/18 00:38:20;;;;;;;;;6.00;6.00;;;;;25.71;44.31;101550.84;5061001;28;45257;-46
2022/05/18 00:40:48;;;;;;;;;6.67;6.67;;;;;25.65;44.45;101556.91;5065159;28;45472;-46
2022/05/18 00:43:19;;;;;;;;;7.67;7.00;;;;;25.57;45.20;101557.69;5060368;28;45398;-46
2022/05/18 00:45:44;;;;;;;;;4.67;4.67;;;;;25.51;45.13;101558.31;5058889;28;45520;-46
2022/05/18 00:48:10;;;;;;;;;5.33;5.33;;;;;25.47;45.75;101567.81;5062847;28;45419;-46
2022/05/18 00:50:36;;;;;;;;;6.00;6.00;;;;;25.42;45.66;101570.16;5063577;28;45190;-47
2022/05/18 00:53:08;;;;;;;;;5.67;5.00;;;;;25.37;46.09;101567.91;5062536;28;59230;-47
2022/05/18 00:55:38;;;;;;;;;5.67;5.67;;;;;25.29;46.13;101570.50;5059553;28;45499;-48
2022/05/18 00:58:17;;;;;;;;;5.00;5.00;;;;;25.17;46.48;101579.94;5076107;27;45473;-46
2022/05/18 01:00:44;;;;;;;;;5.00;5.00;;;;;25.12;46.29;101579.53;5058402;28;45862;-46
2022/05/18 01:03:22;;;;;;;;;6.67;5.33;;;;;25.08;46.87;101587.13;5061255;28;45465;-47
2022/05/18 01:05:53;;;;;;;;;6.67;5.33;;;;;25.01;47.47;101600.50;5058020;28;45851;-46
2022/05/18 01:08:27;;;;;;;;;4.00;4.00;;;;;24.89;46.96;101593.56;5059581;28;46215;-47
2022/05/18 01:10:52;;;;;;;;;4.33;4.33;;;;;24.80;47.32;101598.03;5053640;28;45433;-46
2022/05/18 01:13:17;;;;;;;;;6.00;6.00;;;;;24.73;47.36;101594.22;5063935;28;60216;-46
2022/05/18 01:15:43;;;;;;;;;5.00;4.00;;;;;24.68;48.03;101593.81;5072885;28;64033;-46
2022/05/18 01:18:09;;;;;;;;;6.00;6.00;;;;;24.66;48.14;101598.56;5065687;28;65398;-46
2022/05/18 01:20:37;;;;;;;;;6.00;5.00;;;;;24.65;47.96;101605.00;5054205;28;45520;-48
2022/05/18 01:23:02;;;;;;;;;5.00;5.00;;;;;24.61;48.06;101604.41;5045284;28;45749;-47
2022/05/18 01:26:04;;;;;;;;;6.33;6.00;;;;;24.56;48.59;101603.97;5069685;28;45378;-47
2022/05/18 01:28:33;;;;;;;;;8.00;7.00;;;;;24.47;48.25;101603.03;5060618;28;45646;-45
2022/05/18 01:30:59;;;;;;;;;7.33;5.67;;;;;24.39;48.86;101601.06;5065655;28;45425;-46
2022/05/18 01:33:25;;;;;;;;;7.33;6.00;;;;;24.32;48.66;101604.53;5063787;28;45410;-46
2022/05/18 01:35:52;;;;;;;;;4.33;4.33;;;;;24.26;48.91;101593.22;5070344;28;45581;-47
2022/05/18 01:38:17;;;;;;;;;4.00;4.00;;;;;24.21;49.71;101595.53;5057229;28;45463;-46
2022/05/18 01:40:46;;;;;;;;;5.00;5.00;;;;;24.20;49.48;101606.56;5058214;28;45351;-46
2022/05/18 01:43:22;;;;;;;;;6.67;5.00;;;;;24.18;49.68;101605.84;5058633;28;45335;-48
2022/05/18 01:45:58;;;;;;;;;6.67;6.67;;;;;24.16;49.56;101602.38;5064729;28;45893;-47
2022/05/18 01:48:30;;;;;;;;;5.00;5.00;;;;;24.13;50.01;101608.97;5062029;28;46363;-48
2022/05/18 01:50:58;;;;;;;;;8.67;7.00;;;;;24.08;49.87;101614.03;5075107;28;45250;-47
2022/05/18 01:53:23;;;;;;;;;5.00;5.00;;;;;24.05;50.05;101620.59;5067747;28;45359;-45
2022/05/18 01:55:48;;;;;;;;;5.33;5.00;;;;;24.02;50.03;101606.44;5066855;28;63221;-46
2022/05/18 01:58:15;;;;;;;;;5.00;5.00;;;;;23.99;50.24;101618.47;5059171;28;46137;-46
2022/05/18 02:00:41;;;;;;;;;5.67;5.67;;;;;23.93;50.27;101628.03;5058912;28;45355;-47
2022/05/18 02:03:07;;;;;;;;;5.67;5.67;;;;;23.90;50.53;101633.75;5061363;28;45443;-47
2022/05/18 02:05:32;;;;;;;;;5.33;3.33;;;;;23.89;50.35;101634.72;5070650;28;45473;-46
2022/05/18 02:07:58;;;;;;;;;6.33;6.33;;;;;23.86;50.79;101632.31;5065207;28;63527;-47
2022/05/18 02:10:24;;;;;;;;;7.67;6.00;;;;;23.81;50.58;101639.19;5061219;28;45428;-46
2022/05/18 02:12:51;;;;;;;;;5.33;5.33;;;;;23.75;50.70;101651.44;5070342;28;45356;-47
2022/05/18 02:15:16;;;;;;;;;3.67;3.67;;;;;23.69;51.14;101652.00;5059942;28;45453;-46
2022/05/18 02:17:43;;;;;;;;;5.00;4.33;;;;;23.66;50.93;101650.44;5062370;28;46429;-46
2022/05/18 02:20:09;;;;;;;;;6.00;6.00;;;;;23.62;50.78;101644.47;5064259;28;45454;-46
2022/05/18 02:22:34;;;;;;;;;6.33;5.00;;;;;23.58;51.20;101648.47;5059103;28;45379;-46
2022/05/18 02:25:00;;;;;;;;;3.67;3.67;;;;;23.54;51.31;101659.72;5056746;28;60776;-46
2022/05/18 02:27:25;;;;;;;;;5.00;5.00;;;;;23.45;50.88;101662.31;5071627;28;46103;-46
2022/05/18 02:29:51;;;;;;;;;4.67;4.67;;;;;23.35;51.31;101660.56;5061048;28;65612;-47
2022/05/18 02:32:16;;;;;;;;;3.67;3.67;;;;;23.23;51.74;101668.84;5062385;28;59301;-47
2022/05/18 02:34:42;;;;;;;;;4.67;4.67;;;;;23.16;51.55;101673.09;5057325;28;45327;-46
2022/05/18 02:37:07;;;;;;;;;5.00;5.00;;;;;23.10;52.16;101666.34;5057353;28;67862;-46
2022/05/18 02:39:33;;;;;;;;;5.33;3.67;;;;;23.02;51.58;101676.16;5057913;28;45269;-47
2022/05/18 02:41:58;;;;;;;;;5.33;4.00;;;;;22.93;51.93;101673.28;5067239;28;45217;-49
2022/05/18 02:44:23;;;;;;;;;4.00;3.67;;;;;22.93;51.75;101675.09;5069000;28;60535;-49
2022/05/18 02:46:49;;;;;;;;;2.00;1.00;;;;;22.87;51.60;101675.69;5072610;28;46064;-47
2022/05/18 02:49:15;;;;;;;;;0.33;0.33;;;;;22.73;51.35;101675.03;5064651;28;45217;-47
2022/05/18 02:51:41;;;;;;;;;3.67;3.67;;;;;22.60;51.15;101682.53;5063548;28;45323;-48
2022/05/18 02:56:05;;;;;;;;;2.00;2.00;;;;;22.53;51.22;101678.63;5060033;28;45286;-47
2022/05/18 02:56:53;;;;;;;;;2.67;2.00;;;;;22.43;51.37;101684.00;5053814;28;45702;-46
2022/05/18 02:59:20;;;;;;;;;1.33;1.33;;;;;22.30;52.07;101682.31;5059077;28;45411;-45
2022/05/18 03:01:45;;;;;;;;;2.67;2.67;;;;;22.23;51.94;101680.28;5069876;28;45585;-46
2022/05/18 03:04:11;;;;;;;;;3.00;3.00;;;;;22.20;52.72;101686.81;5063771;28;45575;-46
2022/05/18 03:06:37;;;;;;;;;3.67;2.00;;;;;22.19;52.68;101690.50;5061529;28;46242;-47
2022/05/18 03:09:02;;;;;;;;;3.00;2.67;;;;;22.21;52.50;101693.94;5061929;28;65806;-45
2022/05/18 03:11:27;;;;;;;;;3.67;3.67;;;;;22.25;52.80;101694.53;5050381;28;45303;-48
2022/05/18 03:13:53;;;;;;;;;2.00;2.00;;;;;22.26;53.36;101693.56;5063991;28;58950;-46
2022/05/18 03:16:18;;;;;;;;;4.00;4.00;;;;;22.28;52.94;101691.56;5077846;28;55582;-48
2022/05/18 03:18:44;;;;;;;;;3.00;3.00;;;;;22.23;52.69;101691.97;5059953;28;65374;-46
2022/05/18 03:23:53;;;;;;;;;1.67;1.67;;;;;22.17;52.17;101708.72;5063956;28;45254;-47
2022/05/18 03:26:21;;;;;;;;;5.00;2.00;;;;;22.16;51.84;101707.00;5060706;28;45986;-47
2022/05/18 03:28:48;;;;;;;;;3.33;2.00;;;;;22.12;52.13;101706.44;5062377;28;45384;-45
2022/05/18 03:31:14;;;;;;;;;2.67;2.67;;;;;22.12;52.30;101716.41;5069678;28;45435;-47
2022/05/18 03:33:40;;;;;;;;;2.00;2.00;;;;;22.11;51.31;101714.66;5063245;28;45537;-47
2022/05/18 03:36:08;;;;;;;;;1.67;1.67;;;;;22.10;51.53;101726.50;5060390;28;46131;-47
2022/05/18 03:38:34;;;;;;;;;1.50;1.50;;;;;22.03;50.84;101725.31;5061019;28;46422;-46
2022/05/18 03:40:59;;;;;;;;;0.33;0.33;;;;;21.95;51.27;101729.53;5065140;28;45432;-46
2022/05/18 03:43:24;;;;;;;;;2.33;2.00;;;;;21.93;50.96;101738.78;5062175;28;57020;-46
2022/05/18 03:45:50;;;;;;;;;3.00;3.00;;;;;21.90;51.48;101739.00;5066747;28;68123;-46
2022/05/18 03:48:16;;;;;;;;;4.00;2.67;;;;;21.88;51.04;101739.16;5059531;28;45340;-48
2022/05/18 03:50:46;;;;;;;;;1.75;1.75;;;;;21.86;51.94;101742.97;5073100;28;45291;-46
2022/05/18 03:53:12;;;;;;;;;2.33;2.33;;;;;21.81;51.95;101743.34;5058301;28;45482;-47
2022/05/18 03:55:39;;;;;;;;;3.00;1.33;;;;;21.79;52.09;101748.03;5061066;28;45288;-46
2022/05/18 03:58:05;;;;;;;;;1.67;1.67;;;;;21.80;51.58;101752.47;5067595;28;45370;-46
2022/05/18 04:00:32;;;;;;;;;2.33;2.33;;;;;21.81;52.17;101751.47;5068877;28;45214;-46
2022/05/18 04:02:57;;;;;;;;;2.00;2.00;;;;;21.82;51.90;101750.47;5061930;28;45412;-46
2022/05/18 04:05:23;;;;;;;;;1.33;1.33;;;;;21.81;51.85;101752.34;5060873;28;46372;-46
2022/05/18 04:07:49;;;;;;;;;2.00;2.00;;;;;21.78;51.96;101759.84;5055952;28;64962;-48
2022/05/18 04:10:14;;;;;;;;;2.33;2.33;;;;;21.76;51.99;101759.13;5069962;28;45442;-47
2022/05/18 04:12:41;;;;;;;;;1.67;1.67;;;;;21.76;51.69;101761.84;5058598;28;45613;-46
2022/05/18 04:15:07;;;;;;;;;2.00;2.00;;;;;21.73;52.22;101765.66;5059554;28;45462;-46
2022/05/18 04:17:32;;;;;;;;;3.67;3.00;;;;;21.66;52.09;101763.59;5071457;28;45510;-47
2022/05/18 04:19:58;;;;;;;;;2.33;2.33;;;;;21.62;52.04;101753.00;5058318;28;45955;-46
2022/05/18 04:22:26;;;;;;;;;1.33;1.33;;;;;21.60;51.83;101763.09;5055022;28;45268;-48
2022/05/18 04:24:52;;;;;;;;;1.50;1.00;;;;;21.56;51.85;101763.47;5055761;28;46634;-46
2022/05/18 04:27:17;;;;;;;;;2.33;2.33;;;;;21.54;52.05;101769.00;5072626;28;45613;-47
2022/05/18 04:29:43;;;;;;;;;1.67;1.67;;;;;21.52;51.28;101764.66;5062508;28;45237;-47
2022/05/18 04:32:08;;;;;;;;;1.00;1.00;;;;;21.52;51.92;101767.38;5054222;28;45492;-48
2022/05/18 04:34:34;;;;;;;;;2.00;2.00;;;;;21.51;51.74;101765.66;5062353;28;45532;-48
2022/05/18 04:37:00;;;;;;;;;0.33;0.33;;;;;21.51;51.59;101765.66;5057934;28;45371;-49
2022/05/18 04:39:25;;;;;;;;;2.00;2.00;;;;;21.52;51.44;101767.38;5061633;28;45341;-47
2022/05/18 04:41:50;;;;;;;;;1.00;1.00;;;;;21.53;50.82;101774.50;5064429;28;45481;-46
2022/05/18 04:44:16;;;;;;;;;2.00;2.00;;;;;21.52;51.29;101786.31;5065229;28;64692;-46
2022/05/18 04:46:41;;;;;;;;;1.00;1.00;;;;;21.51;51.22;101782.78;5062819;28;45326;-46
2022/05/18 04:49:07;;;;;;;;;1.00;1.00;;;;;21.50;50.82;101794.56;5060401;28;45449;-47
2022/05/18 04:51:33;;;;;;;;;2.00;1.00;;;;;21.47;50.61;101794.78;5046962;28;45451;-46
2022/05/18 04:53:59;;;;;;;;;1.00;1.00;;;;;21.45;51.23;101794.94;5064109;28;46106;-45
2022/05/18 04:56:25;;;;;;;;;1.33;1.33;;;;;21.45;50.78;101797.63;5059928;28;64537;-48
2022/05/18 04:58:51;;;;;;;;;1.33;1.33;;;;;21.44;50.63;101801.31;5046982;28;45398;-46
2022/05/18 05:01:16;;;;;;;;;0.67;0.67;;;;;21.42;50.70;101797.00;5052324;28;45472;-46
2022/05/18 05:03:42;;;;;;;;;2.00;2.00;;;;;21.40;50.51;101801.72;5061881;28;67751;-46
2022/05/18 05:06:07;;;;;;;;;1.00;1.00;;;;;21.38;50.70;101807.25;5064814;28;64650;-46
2022/05/18 05:08:34;;;;;;;;;1.00;1.00;;;;;21.38;50.82;101806.38;5070758;28;45435;-45
2022/05/18 05:11:00;;;;;;;;;2.67;1.67;;;;;21.34;50.53;101802.19;5059752;28;45597;-46
2022/05/18 05:13:25;;;;;;;;;1.33;1.33;;;;;21.32;50.91;101805.88;5055532;28;45442;-45
2022/05/18 05:15:54;;;;;;;;;0.33;0.33;;;;;21.31;50.64;101812.28;5055877;28;45277;-48
2022/05/18 05:18:20;;;;;;;;;1.00;1.00;;;;;21.32;50.49;101815.84;5059777;28;45309;-46
2022/05/18 05:20:45;;;;;;;;;0.33;0.33;;;;;21.33;50.85;101814.88;5055533;28;45307;-47
2022/05/18 05:23:11;;;;;;;;;1.33;0.67;;;;;21.32;51.12;101824.81;5069001;28;46262;-46
2022/05/18 05:25:36;;;;;;;;;2.00;1.33;;;;;21.35;50.89;101830.97;5056214;28;45388;-46
2022/05/18 05:28:02;;;;;;;;;1.00;1.00;;;;;21.39;51.29;101832.44;5056398;28;58415;-45
2022/05/18 05:30:27;;;;;;;;;1.33;1.00;;;;;21.40;50.91;101835.03;5057671;28;45202;-50
2022/05/18 05:32:53;;;;;;;;;1.33;1.33;;;;;21.42;50.30;101834.91;5062357;28;45719;-49
2022/05/18 05:35:18;;;;;;;;;1.00;1.00;;;;;21.40;50.67;101837.72;5060733;28;46551;-45
2022/05/18 05:37:44;;;;;;;;;3.00;2.33;;;;;21.42;50.59;101835.78;5055808;28;45289;-49
2022/05/18 05:40:10;;;;;;;;;1.00;1.00;;;;;21.46;50.43;101839.09;5058878;28;45422;-47
2022/05/18 05:42:36;;;;;;;;;0.33;0.33;;;;;21.51;50.25;101841.44;5056127;28;46066;-49
2022/05/18 05:45:02;;;;;;;;;2.67;1.00;;;;;21.52;50.23;101853.97;5051167;28;45285;-49
2022/05/18 05:47:27;;;;;;;;;1.67;1.67;;;;;21.55;50.69;101849.22;5051321;28;45499;-46
2022/05/18 05:49:53;;;;;;;;;0.33;0.33;;;;;21.60;50.46;101856.97;5058761;28;60531;-47
2022/05/18 05:52:18;;;;;;;;;0.33;0.33;;;;;21.62;50.30;101855.00;5061479;28;66328;-47
2022/05/18 05:54:44;;;;;;;;;2.00;2.00;;;;;21.59;50.37;101856.09;5057983;28;54696;-51
2022/05/18 05:57:09;;;;;;;;;1.00;1.00;;;;;21.61;50.57;101858.69;5050850;28;45348;-48
2022/05/18 05:59:36;;;;;;;;;1.00;1.00;;;;;21.64;50.30;101853.88;5061514;28;60609;-47
2022/05/18 06:02:05;;;;;;;;;1.00;1.00;;;;;21.63;50.13;101852.16;5058356;28;46033;-48
2022/05/18 06:04:31;;;;;;;;;5.00;4.00;;;;;21.65;49.69;101862.88;5060141;28;45493;-46
2022/05/18 06:06:57;;;;;;;;;1.00;1.00;;;;;21.70;49.51;101857.09;5070729;28;45401;-46
2022/05/18 06:09:22;;;;;;;;;1.00;1.00;;;;;21.73;49.96;101863.13;5057145;28;45356;-48
2022/05/18 06:11:49;;;;;;;;;4.00;3.00;;;;;21.77;49.87;101861.88;5056787;28;45372;-48
2022/05/18 06:14:15;;;;;;;;;3.00;3.00;;;;;21.82;49.87;101869.63;5041215;28;45309;-49
2022/05/18 06:16:41;;;;;;;;;3.00;1.00;;;;;21.81;48.97;101867.88;5050087;28;45339;-47
2022/05/18 06:19:07;;;;;;;;;2.00;1.00;;;;;21.79;49.42;101862.59;5048507;28;45324;-47
2022/05/18 06:21:32;;;;;;;;;2.00;2.00;;;;;21.84;49.09;101874.91;5060070;28;46560;-47
2022/05/18 06:23:58;;;;;;;;;1.00;1.00;;;;;21.91;49.40;101877.00;5051583;28;63660;-46
2022/05/18 06:26:25;;;;;;;;;0.33;0.33;;;;;21.99;49.17;101873.66;5059503;28;45828;-46
2022/05/18 06:28:50;;;;;;;;;3.33;1.00;;;;;22.06;48.51;101879.44;5056334;28;45483;-46
2022/05/18 06:31:16;;;;;;;;;0.67;0.33;;;;;22.10;48.61;101878.22;5055492;28;64005;-48
2022/05/18 06:33:41;;;;;;;;;1.33;0.33;;;;;22.17;48.42;101878.56;5044563;28;45360;-60
2022/05/18 06:36:07;;;;;;;;;2.00;1.67;;;;;22.29;48.21;101873.00;5057411;28;45514;-60
2022/05/18 06:38:33;;;;;;;;;0.00;0.00;;;;;22.49;47.63;101870.50;5045688;28;45561;-60
2022/05/18 06:43:42;;;;;;;;;1.00;1.00;;;;;22.75;47.63;101876.41;5072070;28;45269;-57
2022/05/18 06:46:08;;;;;;;;;2.00;0.25;;;;;22.96;47.48;101871.00;5057997;28;45391;-57
2022/05/18 06:48:33;;;;;;;;;1.00;1.00;;;;;23.17;46.86;101869.31;5067550;28;45367;-57
2022/05/18 06:50:58;;;;;;;;;1.00;0.33;;;;;23.37;46.10;101875.69;5058210;28;46301;-57
2022/05/18 06:53:24;;;;;;;;;2.33;1.00;;;;;23.53;45.81;101872.47;5056421;28;45310;-57
2022/05/18 06:55:50;;;;;;;;;0.33;0.33;;;;;23.69;46.00;101861.09;5052693;28;45289;-57
2022/05/18 06:58:16;;;;;;;;;0.00;0.00;;;;;23.83;45.32;101862.59;5063039;28;45431;-58
2022/05/18 07:00:42;;;;;;;;;0.00;0.00;;;;;23.96;45.12;101860.50;5056941;28;45436;-57
2022/05/18 07:03:07;;;;;;;;;0.00;0.00;;;;;24.06;44.99;101860.53;5047440;28;45210;-58
2022/05/18 07:05:32;;;;;;;;;1.33;1.00;;;;;24.20;43.97;101867.44;5056185;28;46452;-58
2022/05/18 07:07:58;;;;;;;;;0.33;0.33;;;;;24.28;44.15;101862.16;5059275;28;45305;-58
2022/05/18 07:10:26;;;;;;;;;1.00;0.33;;;;;24.39;44.19;101869.31;5055975;28;46932;-58
2022/05/18 07:12:52;;;;;;;;;0.00;0.00;;;;;24.51;43.95;101859.16;5062856;28;45400;-58
2022/05/18 07:15:17;;;;;;;;;0.00;0.00;;;;;24.63;43.91;101855.34;5062919;28;45501;-58
2022/05/18 07:17:43;;;;;;;;;0.25;0.00;;;;;24.77;43.34;101857.63;5058746;28;45485;-58
2022/05/18 07:20:09;;;;;;;;;4.75;0.00;;;;;24.90;43.23;101857.31;5057070;28;47201;-58
2022/05/18 07:22:34;;;;;;;;;0.33;0.33;;;;;24.97;42.69;101859.47;5048192;28;45382;-58
2022/05/18 07:25:00;;;;;;;;;0.25;0.25;;;;;24.80;42.88;101855.59;5065042;28;57319;-59
2022/05/18 07:27:25;;;;;;;;;0.00;0.00;;;;;24.82;42.93;101865.31;5057106;28;60769;-58
2022/05/18 07:29:50;;;;;;;;;0.33;0.33;;;;;24.97;42.76;101859.47;5056796;28;46119;-58
2022/05/18 07:32:16;;;;;;;;;0.67;0.67;;;;;25.09;43.23;101856.41;5064146;28;63532;-58
2022/05/18 07:34:43;;;;;;;;;0.33;0.33;;;;;25.20;42.25;101858.13;5057284;28;45244;-58
2022/05/18 07:37:09;;;;;;;;;0.67;0.33;;;;;25.30;42.67;101854.50;5056908;28;45422;-58
2022/05/18 07:39:35;;;;;;;;;1.67;1.00;;;;;25.47;42.16;101858.34;5056734;28;45988;-58
2022/05/18 07:42:00;;;;;;;;;1.00;1.00;;;;;25.60;41.66;101869.75;5058079;28;45493;-58
2022/05/18 07:44:27;;;;;;;;;2.00;0.00;;;;;25.65;41.99;101861.13;5063317;28;45764;-58
2022/05/18 07:46:52;;;;;;;;;0.25;0.25;;;;;25.73;41.49;101862.06;5071525;28;45431;-58
2022/05/18 07:49:18;;;;;;;;;0.00;0.00;;;;;25.87;41.61;101863.44;5056424;28;46044;-58
2022/05/18 07:51:44;;;;;;;;;1.00;1.00;;;;;26.03;41.68;101867.38;5059371;28;64355;-58
2022/05/18 07:54:09;;;;;;;;;3.00;1.00;;;;;26.13;41.24;101861.91;5060229;28;45418;-58
2022/05/18 07:56:35;;;;;;;;;1.00;1.00;;;;;26.18;40.94;101857.69;5056471;28;45412;-58
2022/05/18 07:59:02;;;;;;;;;0.00;0.00;;;;;26.29;40.86;101855.75;5066651;28;46223;-58
2022/05/18 08:01:27;;;;;;;;;1.00;1.00;;;;;26.47;41.17;101863.94;5045455;28;45651;-58
2022/05/18 08:03:53;;;;;;;;;3.00;1.00;;;;;26.61;39.96;101859.78;5059987;28;45455;-58
2022/05/18 08:06:18;;;;;;;;;0.50;0.50;;;;;26.85;39.58;101862.75;5060428;28;45330;-59
2022/05/18 08:08:44;;;;;;;;;1.75;0.25;;;;;27.11;39.79;101852.88;5059827;28;58643;-58
2022/05/18 08:16:37;;;;;;;;;2.00;1.00;;;;;28.02;39.18;101852.31;5055374;28;45486;-58
2022/05/18 08:19:06;;;;;;;;;1.00;1.00;;;;;28.34;38.00;101852.56;5053309;28;58991;-59
2022/05/18 08:21:31;;;;;;;;;0.25;0.25;;;;;28.55;37.97;101849.31;5062097;28;45552;-58
2022/05/18 08:23:56;;;;;;;;;3.00;1.00;;;;;28.77;37.63;101858.75;5059936;28;45372;-57
2022/05/18 08:26:22;;;;;;;;;0.50;0.50;;;;;28.92;37.58;101849.88;5064397;28;45404;-57
2022/05/18 08:28:47;;;;;;;;;1.25;1.00;;;;;29.09;36.86;101857.03;5060724;28;45443;-57
2022/05/18 08:31:15;;;;;;;;;2.00;2.00;;;;;29.32;36.85;101848.97;5059918;28;45323;-57
2022/05/18 08:33:40;;;;;;;;;0.50;0.50;;;;;29.65;36.47;101853.47;5059304;28;45503;-57
2022/05/18 08:36:07;;;;;;;;;3.00;2.00;;;;;29.92;36.20;101845.81;5064389;28;46211;-57
2022/05/18 08:38:34;;;;;;;;;1.00;1.00;;;;;30.05;35.28;101846.09;5066919;28;46245;-57
2022/05/18 08:41:11;;;;;;;;;4.00;2.00;;;;;30.05;35.34;101845.22;5057736;28;45483;-58
2022/05/18 08:43:45;;;;;;;;;2.75;0.00;;;;;30.12;34.85;101857.19;5059524;28;45446;-60
2022/05/18 08:46:18;;;;;;;;;4.00;2.00;;;;;30.58;34.18;101845.38;5063509;28;45371;-60
2022/05/18 08:49:14;;;;;;;;;2.25;2.25;;;;;31.26;34.74;101842.69;5051302;28;46344;-59
2022/05/18 08:52:04;;;;;;;;;1.00;1.00;;;;;31.80;33.00;101845.13;5059270;28;45482;-49
2022/05/18 08:54:50;;;;;;;;;1.25;1.25;;;;;31.50;32.95;101847.88;5058763;28;45675;-58
2022/05/18 08:57:19;;;;;;;;;1.25;1.25;;;;;30.99;33.37;101848.59;5037488;28;45418;-52
2022/05/18 08:59:46;;;;;;;;;2.00;2.00;;;;;30.84;33.73;101848.56;5057882;28;46921;-56
2022/05/18 09:02:16;;;;;;;;;1.50;1.50;;;;;30.96;33.19;101842.63;5041430;28;45796;-54
2022/05/18 09:04:52;;;;;;;;;0.25;0.25;;;;;31.11;32.91;101840.78;5058479;28;45334;-51
2022/05/18 09:07:21;;;;;;;;;1.25;1.25;;;;;31.11;33.30;101846.28;5067746;28;45507;-49
2022/05/18 09:10:12;;;;;;;;;1.25;1.25;;;;;31.09;33.46;101851.09;5060375;28;45385;-50
2022/05/18 09:12:40;;;;;;;;;3.25;1.75;;;;;30.90;33.57;101840.63;5058713;28;45762;-47
2022/05/18 09:15:08;;;;;;;;;2.75;1.50;;;;;30.61;33.62;101843.13;5063783;28;45516;-48
2022/05/18 09:17:33;;;;;;;;;1.75;1.75;;;;;30.40;33.29;101842.94;5058214;28;45518;-49
2022/05/18 09:20:22;;;;;;;;;1.00;1.00;;;;;30.42;34.20;101840.88;5058789;28;45530;-51
2022/05/18 09:23:03;;;;;;;;;1.00;1.00;;;;;30.56;33.92;101837.34;5058942;28;45241;-50
2022/05/18 09:25:55;;;;;;;;;1.75;1.25;;;;;30.85;34.38;101836.53;5058762;28;45471;-49
2022/05/18 09:28:49;;;;;;;;;1.75;1.50;;;;;31.26;33.20;101829.78;5056061;28;45696;-52
2022/05/18 09:31:25;;;;;;;;;2.50;2.00;;;;;31.57;32.92;101830.63;5053844;28;45784;-48
2022/05/18 09:34:05;;;;;;;;;1.00;1.00;;;;;31.69;33.61;101823.63;5057464;28;45368;-51
2022/05/18 09:36:58;;;;;;;;;1.75;1.75;;;;;31.77;33.22;101820.78;5058932;28;45292;-53
2022/05/18 09:39:27;;;;;;;;;2.75;1.75;;;;;31.89;32.57;101817.50;5058932;28;45186;-55
2022/05/18 09:41:56;;;;;;;;;1.00;1.00;;;;;32.12;33.06;101820.97;5041125;28;46390;-50
2022/05/18 09:44:25;;;;;;;;;2.00;2.00;;;;;32.34;32.83;101820.97;5060292;28;45508;-50
2022/05/18 09:46:51;;;;;;;;;1.75;1.25;;;;;32.46;32.04;101813.03;5062006;28;45478;-49
2022/05/18 09:49:23;;;;;;;;;2.00;2.00;;;;;32.72;31.88;101817.06;5041050;28;45446;-49
2022/05/18 09:51:49;;;;;;;;;1.75;1.75;;;;;32.97;31.62;101818.34;5037374;28;46315;-54
2022/05/18 09:54:14;;;;;;;;;1.75;1.75;;;;;33.04;31.11;101812.03;5039137;28;45464;-51
2022/05/18 09:56:44;;;;;;;;;1.25;1.25;;;;;33.25;31.10;101809.16;5062252;28;45546;-55
2022/05/18 09:59:15;;;;;;;;;0.75;0.75;;;;;33.47;30.75;101804.44;5042614;28;45336;-52
2022/05/18 10:07:34;;;;;;;;;1.25;1.25;;;;;34.12;30.46;101804.03;5072423;28;45306;-52
2022/05/18 10:10:22;;;;;;;;;2.00;2.00;;;;;34.55;29.87;101801.94;5056382;28;45385;-52
2022/05/18 10:13:02;;;;;;;;;1.50;1.50;;;;;34.97;29.30;101798.94;5049917;28;46250;-51
2022/05/18 10:15:33;;;;;;;;;3.25;2.00;;;;;35.34;28.94;101785.44;5063078;28;45300;-50
2022/05/18 10:18:10;;;;;;;;;5.50;3.50;;;;;35.42;28.65;101791.63;5058337;28;45330;-51
2022/05/18 10:20:36;;;;;;;;;1.00;1.00;;;;;35.39;28.50;101786.50;5057446;28;45473;-48
2022/05/18 10:23:03;;;;;;;;;3.75;2.00;;;;;35.55;27.90;101778.78;5058547;28;45344;-51
2022/05/18 10:25:48;;;;;;;;;2.25;1.25;;;;;35.60;27.97;101781.72;5056131;28;45399;-48
2022/05/18 10:28:32;;;;;;;;;4.00;3.50;;;;;35.66;27.65;101777.22;5056863;28;45599;-49
2022/05/18 10:31:03;;;;;;;;;3.00;1.00;;;;;35.77;28.32;101777.41;5072816;28;45341;-50
2022/05/18 10:33:35;;;;;;;;;2.75;1.00;;;;;36.01;26.92;101772.16;5058264;28;45336;-51
2022/05/18 10:36:16;;;;;;;;;5.50;2.25;;;;;36.19;27.17;101768.63;5057955;28;45446;-48
2022/05/18 10:38:50;;;;;;;;;0.25;0.25;;;;;36.77;26.54;101772.16;5057471;28;45380;-55
2022/05/18 10:41:18;;;;;;;;;2.00;2.00;;;;;37.08;26.98;101760.13;5073063;28;45339;-52
2022/05/18 10:44:04;;;;;;;;;2.00;2.00;;;;;37.99;26.20;101758.50;5067644;27;45451;-50
2022/05/18 10:46:31;;;;;;;;;2.25;1.50;;;;;38.44;25.15;101744.09;5038611;28;45715;-52
2022/05/18 10:49:10;;;;;;;;;2.25;2.25;;;;;38.77;25.25;101756.53;5058223;28;45484;-52
2022/05/18 10:51:38;;;;;;;;;2.00;2.00;;;;;39.07;24.37;101751.91;5043357;28;45568;-50
2022/05/18 10:54:22;;;;;;;;;1.75;1.75;;;;;39.34;24.00;101749.44;5061454;28;46216;-50
2022/05/18 10:56:48;;;;;;;;;1.50;1.50;;;;;39.64;23.91;101746.41;5067111;28;45530;-51
2022/05/18 10:59:51;;;;;;;;;2.50;1.00;;;;;39.98;23.19;101742.84;5063379;28;45523;-52
2022/05/18 11:02:29;;;;;;;;;3.25;2.25;;;;;40.06;23.41;101747.16;4965121;28;45643;-55
2022/05/18 11:05:25;;;;;;;;;0.50;0.50;;;;;40.20;22.50;101740.19;5022140;28;45476;-56
2022/05/18 11:07:51;;;;;;;;;2.50;1.50;;;;;40.53;22.85;101741.25;5057821;28;45516;-52
2022/05/18 11:10:16;;;;;;;;;2.00;1.00;;;;;40.90;22.09;101737.88;5061784;28;47166;-49
2022/05/18 11:12:51;;;;;;;;;2.00;2.00;;;;;41.00;21.89;101737.19;5063064;28;45558;-52
2022/05/18 11:15:34;;;;;;;;;2.00;1.75;;;;;41.26;21.61;101732.75;5049341;28;46970;-53
2022/05/18 11:18:06;;;;;;;;;2.25;2.00;;;;;41.73;20.95;101738.84;5044880;28;45826;-53
2022/05/18 11:20:34;;;;;;;;;1.25;0.75;;;;;41.92;20.03;101733.75;5057966;28;45828;-52
2022/05/18 11:23:08;;;;;;;;;1.50;1.50;;;;;41.81;20.50;101735.56;5061075;28;45513;-52
2022/05/18 11:25:55;;;;;;;;;1.00;1.00;;;;;41.85;19.81;101736.72;5070218;28;45361;-53
2022/05/18 11:28:34;;;;;;;;;1.00;1.00;;;;;42.13;20.16;101727.19;5055068;28;45308;-53
2022/05/18 11:31:09;;;;;;;;;3.00;1.50;;;;;42.29;19.54;101735.72;5062465;28;45261;-52
2022/05/18 11:33:40;;;;;;;;;1.00;1.00;;;;;42.40;18.97;101726.28;5060994;28;45625;-50
2022/05/18 11:36:24;;;;;;;;;1.00;1.00;;;;;42.58;19.39;101727.81;5045252;28;45525;-52
2022/05/18 11:39:03;;;;;;;;;4.00;2.25;;;;;42.95;19.63;101726.03;5070010;28;45397;-52
2022/05/18 11:41:29;;;;;;;;;3.50;3.50;;;;;43.42;19.31;101727.03;5061112;28;45458;-48
2022/05/18 11:43:54;;;;;;;;;2.00;2.00;;;;;43.74;18.77;101714.78;5068136;28;45505;-51
2022/05/18 11:46:43;;;;;;;;;1.00;1.00;;;;;44.27;19.04;101714.50;5056624;28;46064;-50
2022/05/18 11:49:20;;;;;;;;;3.00;2.00;;;;;44.64;18.19;101706.84;5058300;28;45481;-53